Portada
METAR-TAF:

METAR-TAF

Aeroports :

Estocolm-Arlanda, Suècia

latitud: 59-39N, longitud: 017-57E, altitud: 38 m

Observació

L'informe es va fer fa 43 minuts, a les 13:20 UTC
Vent 14 kt del Sud
Temperatura 17°C
Humitat 39%
Pressió 1024 hPa
Visibilitat 10 km o més
sense núvols per sota de 1500 mi sense presència de cumulonimbus.

METAR: ESSA 221320Z 17014KT CAVOK 17/03 Q1024 NOSIG

Hora: 16:03 (14:03 UTC)

Pronòstic

L'informe es va fer fa 2 hores i 33 minuts, a les 11:30 UTC
Pronòstic vàlid del 22 a les 12 UTC al 23 a les 12 UTC
Vent 13 kt del Oest/Sud-Oest
Visibilitat 10 km o més
sense núvols per sota de 1500 mi sense presència de cumulonimbus.
Evolucionant progressivament
l' 22 a les 21 UTC al 22 a les 23 UTC
Vent 5 kt del Sud

TAF: ESSA 221130Z 2212/2312 24013KT CAVOK BECMG 2221/2223 18005KT

Observacions i pronòstics meteorològics de més de 4000 aeroports (METAR i TAF).

Les estacions disponibles són els punts grocs i vermells al mapa.

Posi el ratolí al punt desitjat per veure el nom de l'estació.

Feu clic per veure les observacions i els pronòstics meteorològics.

Per canviar el mapa: feu clic els botons verds amb una creu de color negre per apropar; al botó verd amb un guió per allunyar la imatge; o en les fletxes verdes per a mapes adjacents.


METAR-TAF: